sensor_id;sensor_type;location;lat;lon;timestamp;P1;durP1;ratioP1;P2;durP2;ratioP2
51292;SDS011;37377;45.186;9.778;2022-07-29T00:01:15;6.75;;;2.30;;
51292;SDS011;37377;45.186;9.778;2022-07-29T00:03:45;4.10;;;2.15;;
51292;SDS011;37377;45.186;9.778;2022-07-29T00:06:12;3.00;;;2.08;;
51292;SDS011;37377;45.186;9.778;2022-07-29T00:08:40;3.05;;;2.30;;
51292;SDS011;37377;45.186;9.778;2022-07-29T00:11:08;2.53;;;2.17;;
51292;SDS011;37377;45.186;9.778;2022-07-29T00:13:35;6.03;;;2.15;;
51292;SDS011;37377;45.186;9.778;2022-07-29T00:16:02;3.30;;;2.10;;
51292;SDS011;37377;45.186;9.778;2022-07-29T00:18:31;5.80;;;2.58;;
51292;SDS011;37377;45.186;9.778;2022-07-29T00:20:58;3.15;;;2.33;;
51292;SDS011;37377;45.186;9.778;2022-07-29T00:23:26;2.83;;;2.30;;
51292;SDS011;37377;45.186;9.778;2022-07-29T00:25:53;5.13;;;2.63;;
51292;SDS011;37377;45.186;9.778;2022-07-29T00:28:20;4.63;;;2.72;;
51292;SDS011;37377;45.186;9.778;2022-07-29T00:30:47;4.20;;;2.70;;
51292;SDS011;37377;45.186;9.778;2022-07-29T00:33:14;4.70;;;2.90;;
51292;SDS011;37377;45.186;9.778;2022-07-29T00:35:41;3.55;;;2.90;;
51292;SDS011;37377;45.186;9.778;2022-07-29T00:38:14;9.63;;;2.83;;
51292;SDS011;37377;45.186;9.778;2022-07-29T00:40:43;4.60;;;2.58;;
51292;SDS011;37377;45.186;9.778;2022-07-29T00:43:11;4.25;;;2.90;;
51292;SDS011;37377;45.186;9.778;2022-07-29T00:45:39;5.68;;;2.97;;
51292;SDS011;37377;45.186;9.778;2022-07-29T00:48:06;3.95;;;3.00;;
51292;SDS011;37377;45.186;9.778;2022-07-29T00:50:35;4.47;;;3.05;;
51292;SDS011;37377;45.186;9.778;2022-07-29T00:53:03;5.05;;;3.00;;
51292;SDS011;37377;45.186;9.778;2022-07-29T00:55:32;6.30;;;3.38;;
51292;SDS011;37377;45.186;9.778;2022-07-29T00:57:59;10.02;;;3.47;;
51292;SDS011;37377;45.186;9.778;2022-07-29T01:00:27;3.83;;;3.53;;
51292;SDS011;37377;45.186;9.778;2022-07-29T01:02:55;3.65;;;3.35;;
51292;SDS011;37377;45.186;9.778;2022-07-29T01:05:23;4.05;;;3.63;;
51292;SDS011;37377;45.186;9.778;2022-07-29T01:08:11;5.30;;;4.03;;
51292;SDS011;37377;45.186;9.778;2022-07-29T01:10:39;4.32;;;4.00;;
51292;SDS011;37377;45.186;9.778;2022-07-29T01:13:07;4.80;;;4.20;;
51292;SDS011;37377;45.186;9.778;2022-07-29T01:15:38;5.22;;;4.72;;
51292;SDS011;37377;45.186;9.778;2022-07-29T01:18:22;5.22;;;4.72;;
51292;SDS011;37377;45.186;9.778;2022-07-29T01:26:52;5.00;;;4.55;;
51292;SDS011;37377;45.186;9.778;2022-07-29T01:29:27;8.18;;;5.10;;
51292;SDS011;37377;45.186;9.778;2022-07-29T01:32:15;5.50;;;5.00;;
51292;SDS011;37377;45.186;9.778;2022-07-29T01:37:54;7.07;;;5.38;;
51292;SDS011;37377;45.186;9.778;2022-07-29T01:40:32;6.07;;;5.30;;
51292;SDS011;37377;45.186;9.778;2022-07-29T01:43:13;7.28;;;5.65;;
51292;SDS011;37377;45.186;9.778;2022-07-29T01:45:45;7.25;;;6.35;;
51292;SDS011;37377;45.186;9.778;2022-07-29T01:48:21;8.45;;;6.57;;
51292;SDS011;37377;45.186;9.778;2022-07-29T01:50:58;9.07;;;6.25;;
51292;SDS011;37377;45.186;9.778;2022-07-29T01:53:37;9.32;;;6.40;;
51292;SDS011;37377;45.186;9.778;2022-07-29T01:56:09;8.95;;;6.60;;
51292;SDS011;37377;45.186;9.778;2022-07-29T01:58:38;7.22;;;6.63;;
51292;SDS011;37377;45.186;9.778;2022-07-29T02:01:08;10.18;;;6.85;;
51292;SDS011;37377;45.186;9.778;2022-07-29T02:03:36;9.10;;;7.15;;
51292;SDS011;37377;45.186;9.778;2022-07-29T02:06:04;8.10;;;7.43;;
51292;SDS011;37377;45.186;9.778;2022-07-29T02:08:31;8.77;;;7.93;;
51292;SDS011;37377;45.186;9.778;2022-07-29T02:10:59;9.00;;;7.25;;
51292;SDS011;37377;45.186;9.778;2022-07-29T02:13:29;7.45;;;6.93;;
51292;SDS011;37377;45.186;9.778;2022-07-29T02:15:58;8.35;;;7.55;;
51292;SDS011;37377;45.186;9.778;2022-07-29T02:18:28;7.68;;;6.95;;
51292;SDS011;37377;45.186;9.778;2022-07-29T02:20:58;7.40;;;6.72;;
51292;SDS011;37377;45.186;9.778;2022-07-29T02:23:25;6.65;;;6.05;;
51292;SDS011;37377;45.186;9.778;2022-07-29T02:25:53;6.47;;;5.88;;
51292;SDS011;37377;45.186;9.778;2022-07-29T02:28:22;7.43;;;5.97;;
51292;SDS011;37377;45.186;9.778;2022-07-29T02:30:52;7.57;;;6.30;;
51292;SDS011;37377;45.186;9.778;2022-07-29T02:33:20;10.68;;;6.35;;
51292;SDS011;37377;45.186;9.778;2022-07-29T02:35:48;12.18;;;7.15;;
51292;SDS011;37377;45.186;9.778;2022-07-29T02:38:16;8.73;;;8.02;;
51292;SDS011;37377;45.186;9.778;2022-07-29T02:41:08;7.85;;;7.22;;
51292;SDS011;37377;45.186;9.778;2022-07-29T02:43:38;8.55;;;7.75;;
51292;SDS011;37377;45.186;9.778;2022-07-29T02:46:18;10.18;;;8.10;;
51292;SDS011;37377;45.186;9.778;2022-07-29T02:48:56;9.68;;;8.70;;
51292;SDS011;37377;45.186;9.778;2022-07-29T02:51:33;9.90;;;9.07;;
51292;SDS011;37377;45.186;9.778;2022-07-29T02:54:10;12.07;;;10.38;;
51292;SDS011;37377;45.186;9.778;2022-07-29T02:56:42;9.27;;;8.50;;
51292;SDS011;37377;45.186;9.778;2022-07-29T02:59:11;11.15;;;10.10;;
51292;SDS011;37377;45.186;9.778;2022-07-29T03:01:48;10.38;;;9.43;;
51292;SDS011;37377;45.186;9.778;2022-07-29T03:04:18;11.07;;;9.98;;
51292;SDS011;37377;45.186;9.778;2022-07-29T03:06:47;10.38;;;9.38;;
51292;SDS011;37377;45.186;9.778;2022-07-29T03:09:15;18.08;;;10.77;;
51292;SDS011;37377;45.186;9.778;2022-07-29T03:11:42;12.35;;;11.25;;
51292;SDS011;37377;45.186;9.778;2022-07-29T03:14:16;14.43;;;11.23;;
51292;SDS011;37377;45.186;9.778;2022-07-29T03:16:45;13.00;;;11.65;;
51292;SDS011;37377;45.186;9.778;2022-07-29T03:19:13;14.38;;;11.27;;
51292;SDS011;37377;45.186;9.778;2022-07-29T03:21:40;16.02;;;12.63;;
51292;SDS011;37377;45.186;9.778;2022-07-29T03:24:07;12.65;;;11.52;;
51292;SDS011;37377;45.186;9.778;2022-07-29T03:26:38;14.73;;;12.32;;
51292;SDS011;37377;45.186;9.778;2022-07-29T03:29:05;15.30;;;12.65;;
51292;SDS011;37377;45.186;9.778;2022-07-29T03:31:36;15.25;;;12.57;;
51292;SDS011;37377;45.186;9.778;2022-07-29T03:34:02;13.52;;;12.35;;
51292;SDS011;37377;45.186;9.778;2022-07-29T03:36:29;14.68;;;13.07;;
51292;SDS011;37377;45.186;9.778;2022-07-29T03:38:56;14.52;;;13.02;;
51292;SDS011;37377;45.186;9.778;2022-07-29T03:41:23;13.10;;;11.95;;
51292;SDS011;37377;45.186;9.778;2022-07-29T03:43:51;14.80;;;13.43;;
51292;SDS011;37377;45.186;9.778;2022-07-29T03:46:18;15.05;;;13.05;;
51292;SDS011;37377;45.186;9.778;2022-07-29T03:48:48;17.83;;;14.00;;
51292;SDS011;37377;45.186;9.778;2022-07-29T03:51:15;17.40;;;13.50;;
51292;SDS011;37377;45.186;9.778;2022-07-29T03:53:42;21.10;;;14.55;;
51292;SDS011;37377;45.186;9.778;2022-07-29T03:56:09;15.43;;;13.45;;
51292;SDS011;37377;45.186;9.778;2022-07-29T03:58:36;14.85;;;13.32;;
51292;SDS011;37377;45.186;9.778;2022-07-29T04:01:04;15.55;;;13.95;;
51292;SDS011;37377;45.186;9.778;2022-07-29T04:03:31;16.45;;;13.70;;
51292;SDS011;37377;45.186;9.778;2022-07-29T04:06:01;19.33;;;14.35;;
51292;SDS011;37377;45.186;9.778;2022-07-29T04:08:33;18.65;;;13.35;;
51292;SDS011;37377;45.186;9.778;2022-07-29T04:11:00;16.33;;;14.35;;
51292;SDS011;37377;45.186;9.778;2022-07-29T04:13:28;20.88;;;15.15;;
51292;SDS011;37377;45.186;9.778;2022-07-29T04:15:55;17.60;;;14.95;;
51292;SDS011;37377;45.186;9.778;2022-07-29T04:18:28;18.45;;;15.90;;
51292;SDS011;37377;45.186;9.778;2022-07-29T04:20:55;20.50;;;15.60;;
51292;SDS011;37377;45.186;9.778;2022-07-29T04:23:22;23.27;;;17.50;;
51292;SDS011;37377;45.186;9.778;2022-07-29T04:25:49;21.45;;;17.35;;
51292;SDS011;37377;45.186;9.778;2022-07-29T04:28:17;28.45;;;17.38;;
51292;SDS011;37377;45.186;9.778;2022-07-29T04:30:44;17.77;;;15.50;;
51292;SDS011;37377;45.186;9.778;2022-07-29T04:33:11;20.27;;;16.48;;
51292;SDS011;37377;45.186;9.778;2022-07-29T04:35:38;20.60;;;16.15;;
51292;SDS011;37377;45.186;9.778;2022-07-29T04:38:18;22.13;;;16.50;;
51292;SDS011;37377;45.186;9.778;2022-07-29T04:40:45;19.02;;;15.40;;
51292;SDS011;37377;45.186;9.778;2022-07-29T04:43:15;19.85;;;15.50;;
51292;SDS011;37377;45.186;9.778;2022-07-29T04:45:48;24.67;;;16.13;;
51292;SDS011;37377;45.186;9.778;2022-07-29T04:48:15;19.65;;;15.88;;
51292;SDS011;37377;45.186;9.778;2022-07-29T04:50:42;18.38;;;16.45;;
51292;SDS011;37377;45.186;9.778;2022-07-29T04:53:08;20.70;;;16.55;;
51292;SDS011;37377;45.186;9.778;2022-07-29T04:55:35;19.23;;;17.02;;
51292;SDS011;37377;45.186;9.778;2022-07-29T04:58:04;18.38;;;16.40;;
51292;SDS011;37377;45.186;9.778;2022-07-29T05:00:31;20.60;;;16.92;;
51292;SDS011;37377;45.186;9.778;2022-07-29T05:02:59;18.67;;;16.77;;
51292;SDS011;37377;45.186;9.778;2022-07-29T05:05:26;19.20;;;17.02;;
51292;SDS011;37377;45.186;9.778;2022-07-29T05:07:53;24.25;;;17.77;;
51292;SDS011;37377;45.186;9.778;2022-07-29T05:10:20;27.45;;;16.92;;
51292;SDS011;37377;45.186;9.778;2022-07-29T05:12:47;24.40;;;17.67;;
51292;SDS011;37377;45.186;9.778;2022-07-29T05:15:15;19.48;;;17.48;;
51292;SDS011;37377;45.186;9.778;2022-07-29T05:17:41;20.55;;;15.90;;
51292;SDS011;37377;45.186;9.778;2022-07-29T05:20:08;17.65;;;14.45;;
51292;SDS011;37377;45.186;9.778;2022-07-29T05:22:37;20.65;;;12.60;;
51292;SDS011;37377;45.186;9.778;2022-07-29T05:25:04;13.95;;;11.00;;
51292;SDS011;37377;45.186;9.778;2022-07-29T05:27:35;13.50;;;10.50;;
51292;SDS011;37377;45.186;9.778;2022-07-29T05:30:03;10.88;;;9.75;;
51292;SDS011;37377;45.186;9.778;2022-07-29T05:32:30;10.35;;;9.50;;
51292;SDS011;37377;45.186;9.778;2022-07-29T05:34:58;11.43;;;8.77;;
51292;SDS011;37377;45.186;9.778;2022-07-29T05:37:25;27.05;;;9.35;;
51292;SDS011;37377;45.186;9.778;2022-07-29T05:39:52;12.30;;;8.75;;
51292;SDS011;37377;45.186;9.778;2022-07-29T05:44:52;19.58;;;8.68;;
51292;SDS011;37377;45.186;9.778;2022-07-29T05:47:20;11.02;;;7.03;;
51292;SDS011;37377;45.186;9.778;2022-07-29T05:49:48;160.20;;;15.13;;
51292;SDS011;37377;45.186;9.778;2022-07-29T05:52:15;13.70;;;7.82;;
51292;SDS011;37377;45.186;9.778;2022-07-29T05:54:43;9.15;;;8.27;;
51292;SDS011;37377;45.186;9.778;2022-07-29T05:57:19;26.55;;;7.13;;
51292;SDS011;37377;45.186;9.778;2022-07-29T05:59:48;11.98;;;7.60;;
51292;SDS011;37377;45.186;9.778;2022-07-29T06:02:16;19.48;;;13.57;;
51292;SDS011;37377;45.186;9.778;2022-07-29T06:04:43;22.58;;;9.07;;
51292;SDS011;37377;45.186;9.778;2022-07-29T06:07:11;11.43;;;6.32;;
51292;SDS011;37377;45.186;9.778;2022-07-29T06:09:38;13.77;;;6.82;;
51292;SDS011;37377;45.186;9.778;2022-07-29T06:12:05;12.73;;;6.13;;
51292;SDS011;37377;45.186;9.778;2022-07-29T06:14:32;10.48;;;6.65;;
51292;SDS011;37377;45.186;9.778;2022-07-29T06:16:59;10.93;;;5.85;;
51292;SDS011;37377;45.186;9.778;2022-07-29T06:19:26;14.80;;;5.95;;
51292;SDS011;37377;45.186;9.778;2022-07-29T06:21:54;28.48;;;7.13;;
51292;SDS011;37377;45.186;9.778;2022-07-29T06:24:21;26.55;;;7.53;;
51292;SDS011;37377;45.186;9.778;2022-07-29T06:26:48;19.70;;;7.82;;
51292;SDS011;37377;45.186;9.778;2022-07-29T06:29:15;23.55;;;7.05;;
51292;SDS011;37377;45.186;9.778;2022-07-29T06:31:42;43.60;;;11.90;;
51292;SDS011;37377;45.186;9.778;2022-07-29T06:34:09;19.27;;;7.10;;
51292;SDS011;37377;45.186;9.778;2022-07-29T06:36:36;12.57;;;6.68;;
51292;SDS011;37377;45.186;9.778;2022-07-29T06:39:07;100.40;;;11.70;;
51292;SDS011;37377;45.186;9.778;2022-07-29T06:41:34;155.07;;;14.40;;
51292;SDS011;37377;45.186;9.778;2022-07-29T06:44:08;19.55;;;7.43;;
51292;SDS011;37377;45.186;9.778;2022-07-29T06:46:35;16.05;;;6.28;;
51292;SDS011;37377;45.186;9.778;2022-07-29T06:49:03;10.88;;;6.97;;
51292;SDS011;37377;45.186;9.778;2022-07-29T06:51:31;16.45;;;9.73;;
51292;SDS011;37377;45.186;9.778;2022-07-29T06:53:58;9.07;;;5.75;;
51292;SDS011;37377;45.186;9.778;2022-07-29T06:56:32;28.52;;;6.38;;
51292;SDS011;37377;45.186;9.778;2022-07-29T06:59:05;11.38;;;5.38;;
51292;SDS011;37377;45.186;9.778;2022-07-29T07:01:34;8.32;;;5.63;;
51292;SDS011;37377;45.186;9.778;2022-07-29T07:04:02;17.02;;;5.70;;
51292;SDS011;37377;45.186;9.778;2022-07-29T07:06:29;6.93;;;5.40;;
51292;SDS011;37377;45.186;9.778;2022-07-29T07:08:56;8.77;;;5.32;;
51292;SDS011;37377;45.186;9.778;2022-07-29T07:11:23;33.53;;;5.93;;
51292;SDS011;37377;45.186;9.778;2022-07-29T07:13:50;6.53;;;5.05;;
51292;SDS011;37377;45.186;9.778;2022-07-29T07:16:17;13.15;;;3.90;;
51292;SDS011;37377;45.186;9.778;2022-07-29T07:18:44;8.63;;;4.47;;
51292;SDS011;37377;45.186;9.778;2022-07-29T07:21:13;7.03;;;4.20;;
51292;SDS011;37377;45.186;9.778;2022-07-29T07:23:45;5.28;;;4.10;;
51292;SDS011;37377;45.186;9.778;2022-07-29T07:26:13;7.50;;;4.47;;
51292;SDS011;37377;45.186;9.778;2022-07-29T07:28:40;8.75;;;4.57;;
51292;SDS011;37377;45.186;9.778;2022-07-29T07:31:08;7.88;;;5.22;;
51292;SDS011;37377;45.186;9.778;2022-07-29T07:33:36;7.95;;;4.93;;
51292;SDS011;37377;45.186;9.778;2022-07-29T07:36:02;9.18;;;5.68;;
51292;SDS011;37377;45.186;9.778;2022-07-29T07:38:30;10.27;;;5.30;;
51292;SDS011;37377;45.186;9.778;2022-07-29T07:40:57;5.68;;;5.18;;
51292;SDS011;37377;45.186;9.778;2022-07-29T07:43:24;5.35;;;4.85;;
51292;SDS011;37377;45.186;9.778;2022-07-29T07:45:51;7.30;;;5.88;;
51292;SDS011;37377;45.186;9.778;2022-07-29T07:48:18;8.10;;;5.22;;
51292;SDS011;37377;45.186;9.778;2022-07-29T07:50:45;7.40;;;5.60;;
51292;SDS011;37377;45.186;9.778;2022-07-29T07:53:12;7.68;;;5.28;;
51292;SDS011;37377;45.186;9.778;2022-07-29T07:55:40;11.77;;;5.28;;
51292;SDS011;37377;45.186;9.778;2022-07-29T07:58:27;6.55;;;5.60;;
51292;SDS011;37377;45.186;9.778;2022-07-29T08:00:54;10.38;;;5.20;;
51292;SDS011;37377;45.186;9.778;2022-07-29T08:03:22;17.90;;;5.18;;
51292;SDS011;37377;45.186;9.778;2022-07-29T08:05:49;13.88;;;5.00;;
51292;SDS011;37377;45.186;9.778;2022-07-29T08:08:18;8.10;;;5.13;;
51292;SDS011;37377;45.186;9.778;2022-07-29T08:10:45;15.30;;;4.68;;
51292;SDS011;37377;45.186;9.778;2022-07-29T08:13:28;6.35;;;5.72;;
51292;SDS011;37377;45.186;9.778;2022-07-29T08:15:56;6.10;;;5.05;;
51292;SDS011;37377;45.186;9.778;2022-07-29T08:18:38;13.60;;;5.72;;
51292;SDS011;37377;45.186;9.778;2022-07-29T08:21:07;24.38;;;5.10;;
51292;SDS011;37377;45.186;9.778;2022-07-29T08:23:33;58.13;;;9.00;;
51292;SDS011;37377;45.186;9.778;2022-07-29T08:26:18;10.32;;;5.20;;
51292;SDS011;37377;45.186;9.778;2022-07-29T08:28:46;85.57;;;13.70;;
51292;SDS011;37377;45.186;9.778;2022-07-29T08:31:17;7.90;;;5.20;;
51292;SDS011;37377;45.186;9.778;2022-07-29T08:33:44;8.18;;;3.72;;
51292;SDS011;37377;45.186;9.778;2022-07-29T08:36:11;5.00;;;4.50;;
51292;SDS011;37377;45.186;9.778;2022-07-29T08:38:39;8.98;;;5.32;;
51292;SDS011;37377;45.186;9.778;2022-07-29T08:41:06;5.68;;;5.20;;
51292;SDS011;37377;45.186;9.778;2022-07-29T08:43:33;8.93;;;5.10;;
51292;SDS011;37377;45.186;9.778;2022-07-29T08:46:03;7.68;;;5.75;;
51292;SDS011;37377;45.186;9.778;2022-07-29T08:48:30;12.40;;;5.75;;
51292;SDS011;37377;45.186;9.778;2022-07-29T08:50:57;7.07;;;5.20;;
51292;SDS011;37377;45.186;9.778;2022-07-29T08:53:26;4.65;;;3.67;;
51292;SDS011;37377;45.186;9.778;2022-07-29T08:55:54;4.70;;;4.28;;
51292;SDS011;37377;45.186;9.778;2022-07-29T08:58:21;8.48;;;4.63;;
51292;SDS011;37377;45.186;9.778;2022-07-29T09:00:51;6.35;;;4.38;;
51292;SDS011;37377;45.186;9.778;2022-07-29T09:03:24;16.10;;;5.75;;
51292;SDS011;37377;45.186;9.778;2022-07-29T09:05:52;4.90;;;3.83;;
51292;SDS011;37377;45.186;9.778;2022-07-29T09:08:20;17.45;;;8.50;;
51292;SDS011;37377;45.186;9.778;2022-07-29T09:10:47;13.30;;;3.90;;
51292;SDS011;37377;45.186;9.778;2022-07-29T09:13:14;8.80;;;3.40;;
51292;SDS011;37377;45.186;9.778;2022-07-29T09:15:41;3.83;;;2.75;;
51292;SDS011;37377;45.186;9.778;2022-07-29T09:18:08;10.23;;;4.70;;
51292;SDS011;37377;45.186;9.778;2022-07-29T09:20:55;6.30;;;4.70;;
51292;SDS011;37377;45.186;9.778;2022-07-29T09:23:58;7.20;;;4.05;;
51292;SDS011;37377;45.186;9.778;2022-07-29T09:26:45;5.53;;;3.88;;
51292;SDS011;37377;45.186;9.778;2022-07-29T09:31:46;15.95;;;3.58;;
51292;SDS011;37377;45.186;9.778;2022-07-29T09:34:16;10.20;;;3.80;;
51292;SDS011;37377;45.186;9.778;2022-07-29T09:36:49;7.03;;;3.90;;
51292;SDS011;37377;45.186;9.778;2022-07-29T09:39:26;4.55;;;3.67;;
51292;SDS011;37377;45.186;9.778;2022-07-29T09:41:58;9.27;;;3.67;;
51292;SDS011;37377;45.186;9.778;2022-07-29T09:44:27;4.97;;;2.55;;
51292;SDS011;37377;45.186;9.778;2022-07-29T09:47:08;12.98;;;4.43;;
51292;SDS011;37377;45.186;9.778;2022-07-29T09:49:35;10.07;;;5.28;;
51292;SDS011;37377;45.186;9.778;2022-07-29T09:52:18;9.43;;;4.95;;
51292;SDS011;37377;45.186;9.778;2022-07-29T09:54:45;6.95;;;4.28;;
51292;SDS011;37377;45.186;9.778;2022-07-29T10:00:10;7.80;;;3.97;;
51292;SDS011;37377;45.186;9.778;2022-07-29T10:02:42;14.73;;;6.85;;
51292;SDS011;37377;45.186;9.778;2022-07-29T10:07:48;5.85;;;4.00;;
51292;SDS011;37377;45.186;9.778;2022-07-29T10:15:33;10.32;;;6.53;;
51292;SDS011;37377;45.186;9.778;2022-07-29T10:18:05;8.70;;;5.90;;
51292;SDS011;37377;45.186;9.778;2022-07-29T10:20:33;8.52;;;5.90;;
51292;SDS011;37377;45.186;9.778;2022-07-29T10:23:01;11.93;;;6.03;;
51292;SDS011;37377;45.186;9.778;2022-07-29T10:25:29;7.30;;;6.15;;
51292;SDS011;37377;45.186;9.778;2022-07-29T10:27:56;11.43;;;6.10;;
51292;SDS011;37377;45.186;9.778;2022-07-29T10:30:24;8.10;;;6.75;;
51292;SDS011;37377;45.186;9.778;2022-07-29T10:41:33;7.90;;;6.07;;
51292;SDS011;37377;45.186;9.778;2022-07-29T10:44:15;11.98;;;5.88;;
51292;SDS011;37377;45.186;9.778;2022-07-29T10:46:45;6.82;;;4.25;;
51292;SDS011;37377;45.186;9.778;2022-07-29T10:54:17;6.43;;;5.55;;
51292;SDS011;37377;45.186;9.778;2022-07-29T10:57:14;12.98;;;4.38;;
51292;SDS011;37377;45.186;9.778;2022-07-29T11:07:38;14.52;;;5.70;;
51292;SDS011;37377;45.186;9.778;2022-07-29T11:15:20;8.27;;;5.50;;
51292;SDS011;37377;45.186;9.778;2022-07-29T11:23:20;14.00;;;6.60;;
51292;SDS011;37377;45.186;9.778;2022-07-29T11:28:51;8.15;;;5.60;;
51292;SDS011;37377;45.186;9.778;2022-07-29T11:31:31;9.82;;;8.52;;
51292;SDS011;37377;45.186;9.778;2022-07-29T11:34:43;9.88;;;8.73;;
51292;SDS011;37377;45.186;9.778;2022-07-29T11:45:07;14.18;;;8.80;;
51292;SDS011;37377;45.186;9.778;2022-07-29T11:47:56;9.25;;;6.63;;
51292;SDS011;37377;45.186;9.778;2022-07-29T11:50:44;7.45;;;6.28;;
51292;SDS011;37377;45.186;9.778;2022-07-29T11:53:14;14.68;;;5.78;;
51292;SDS011;37377;45.186;9.778;2022-07-29T11:55:41;8.77;;;5.57;;
51292;SDS011;37377;45.186;9.778;2022-07-29T11:58:23;11.27;;;6.40;;
51292;SDS011;37377;45.186;9.778;2022-07-29T12:00:52;49.17;;;7.15;;
51292;SDS011;37377;45.186;9.778;2022-07-29T12:03:25;18.27;;;5.57;;
51292;SDS011;37377;45.186;9.778;2022-07-29T12:06:14;17.35;;;8.18;;
51292;SDS011;37377;45.186;9.778;2022-07-29T12:08:44;15.88;;;7.72;;
51292;SDS011;37377;45.186;9.778;2022-07-29T12:11:17;18.58;;;7.68;;
51292;SDS011;37377;45.186;9.778;2022-07-29T12:13:47;15.88;;;8.55;;
51292;SDS011;37377;45.186;9.778;2022-07-29T12:16:15;14.48;;;6.60;;
51292;SDS011;37377;45.186;9.778;2022-07-29T12:18:58;16.23;;;8.35;;
51292;SDS011;37377;45.186;9.778;2022-07-29T12:21:28;18.38;;;6.68;;
51292;SDS011;37377;45.186;9.778;2022-07-29T12:23:56;9.85;;;6.05;;
51292;SDS011;37377;45.186;9.778;2022-07-29T12:26:35;14.68;;;6.60;;
51292;SDS011;37377;45.186;9.778;2022-07-29T12:29:03;7.25;;;5.32;;
51292;SDS011;37377;45.186;9.778;2022-07-29T12:31:37;15.80;;;5.65;;
51292;SDS011;37377;45.186;9.778;2022-07-29T12:34:11;13.43;;;6.00;;
51292;SDS011;37377;45.186;9.778;2022-07-29T12:36:38;9.60;;;4.38;;
51292;SDS011;37377;45.186;9.778;2022-07-29T12:39:06;6.93;;;5.10;;
51292;SDS011;37377;45.186;9.778;2022-07-29T12:41:33;11.77;;;5.55;;
51292;SDS011;37377;45.186;9.778;2022-07-29T12:44:01;22.90;;;6.05;;
51292;SDS011;37377;45.186;9.778;2022-07-29T12:46:28;10.55;;;5.30;;
51292;SDS011;37377;45.186;9.778;2022-07-29T12:48:55;16.17;;;5.35;;
51292;SDS011;37377;45.186;9.778;2022-07-29T12:51:36;15.45;;;5.97;;
51292;SDS011;37377;45.186;9.778;2022-07-29T12:56:34;52.58;;;6.95;;
51292;SDS011;37377;45.186;9.778;2022-07-29T12:59:18;16.40;;;5.82;;
51292;SDS011;37377;45.186;9.778;2022-07-29T13:01:47;19.27;;;5.30;;
51292;SDS011;37377;45.186;9.778;2022-07-29T13:07:03;12.57;;;4.80;;
51292;SDS011;37377;45.186;9.778;2022-07-29T13:09:43;9.10;;;4.03;;
51292;SDS011;37377;45.186;9.778;2022-07-29T13:12:14;12.65;;;4.85;;
51292;SDS011;37377;45.186;9.778;2022-07-29T13:14:42;8.70;;;3.75;;
51292;SDS011;37377;45.186;9.778;2022-07-29T13:17:11;13.82;;;4.80;;
51292;SDS011;37377;45.186;9.778;2022-07-29T13:22:21;9.95;;;4.45;;
51292;SDS011;37377;45.186;9.778;2022-07-29T13:24:53;17.42;;;4.13;;
51292;SDS011;37377;45.186;9.778;2022-07-29T13:27:22;15.70;;;4.33;;
51292;SDS011;37377;45.186;9.778;2022-07-29T13:30:00;7.90;;;4.75;;
51292;SDS011;37377;45.186;9.778;2022-07-29T13:32:29;13.43;;;5.03;;
51292;SDS011;37377;45.186;9.778;2022-07-29T13:34:58;11.25;;;4.43;;
51292;SDS011;37377;45.186;9.778;2022-07-29T13:37:27;9.82;;;4.50;;
51292;SDS011;37377;45.186;9.778;2022-07-29T13:39:56;14.15;;;5.00;;
51292;SDS011;37377;45.186;9.778;2022-07-29T13:42:23;8.63;;;4.45;;
51292;SDS011;37377;45.186;9.778;2022-07-29T13:44:51;14.05;;;4.20;;
51292;SDS011;37377;45.186;9.778;2022-07-29T13:47:19;19.08;;;4.40;;
51292;SDS011;37377;45.186;9.778;2022-07-29T13:49:46;17.00;;;4.43;;
51292;SDS011;37377;45.186;9.778;2022-07-29T13:52:13;15.02;;;4.57;;
51292;SDS011;37377;45.186;9.778;2022-07-29T13:54:42;6.75;;;3.58;;
51292;SDS011;37377;45.186;9.778;2022-07-29T13:57:09;13.95;;;4.80;;
51292;SDS011;37377;45.186;9.778;2022-07-29T13:59:40;14.77;;;4.45;;
51292;SDS011;37377;45.186;9.778;2022-07-29T14:02:09;4.90;;;3.47;;
51292;SDS011;37377;45.186;9.778;2022-07-29T14:04:41;16.88;;;4.15;;
51292;SDS011;37377;45.186;9.778;2022-07-29T14:07:07;7.80;;;3.80;;
51292;SDS011;37377;45.186;9.778;2022-07-29T14:09:35;13.02;;;3.85;;
51292;SDS011;37377;45.186;9.778;2022-07-29T14:12:07;12.63;;;3.50;;
51292;SDS011;37377;45.186;9.778;2022-07-29T14:14:34;11.90;;;3.00;;
51292;SDS011;37377;45.186;9.778;2022-07-29T14:17:03;17.85;;;3.60;;
51292;SDS011;37377;45.186;9.778;2022-07-29T14:19:33;16.05;;;3.13;;
51292;SDS011;37377;45.186;9.778;2022-07-29T14:22:05;17.05;;;3.17;;
51292;SDS011;37377;45.186;9.778;2022-07-29T14:24:34;11.73;;;3.40;;
51292;SDS011;37377;45.186;9.778;2022-07-29T14:27:05;19.88;;;3.85;;
51292;SDS011;37377;45.186;9.778;2022-07-29T14:29:33;19.42;;;4.65;;
51292;SDS011;37377;45.186;9.778;2022-07-29T14:32:07;18.08;;;5.28;;
51292;SDS011;37377;45.186;9.778;2022-07-29T14:34:36;24.10;;;5.72;;
51292;SDS011;37377;45.186;9.778;2022-07-29T14:37:03;18.45;;;5.32;;
51292;SDS011;37377;45.186;9.778;2022-07-29T14:39:35;12.05;;;5.97;;
51292;SDS011;37377;45.186;9.778;2022-07-29T14:42:09;16.17;;;6.10;;
51292;SDS011;37377;45.186;9.778;2022-07-29T14:44:39;13.18;;;5.82;;
51292;SDS011;37377;45.186;9.778;2022-07-29T14:47:12;6.43;;;5.80;;
51292;SDS011;37377;45.186;9.778;2022-07-29T14:49:39;17.65;;;9.73;;
51292;SDS011;37377;45.186;9.778;2022-07-29T14:52:06;11.90;;;10.00;;
51292;SDS011;37377;45.186;9.778;2022-07-29T14:54:33;16.92;;;12.10;;
51292;SDS011;37377;45.186;9.778;2022-07-29T14:57:00;18.77;;;12.15;;
51292;SDS011;37377;45.186;9.778;2022-07-29T14:59:27;21.25;;;12.80;;
51292;SDS011;37377;45.186;9.778;2022-07-29T15:01:54;19.60;;;10.90;;
51292;SDS011;37377;45.186;9.778;2022-07-29T15:04:22;20.40;;;12.50;;
51292;SDS011;37377;45.186;9.778;2022-07-29T15:06:49;30.98;;;11.77;;
51292;SDS011;37377;45.186;9.778;2022-07-29T15:09:16;25.48;;;12.35;;
51292;SDS011;37377;45.186;9.778;2022-07-29T15:11:43;25.35;;;11.60;;
51292;SDS011;37377;45.186;9.778;2022-07-29T15:14:10;16.77;;;12.98;;
51292;SDS011;37377;45.186;9.778;2022-07-29T15:16:37;15.25;;;10.85;;
51292;SDS011;37377;45.186;9.778;2022-07-29T15:19:09;17.50;;;10.93;;
51292;SDS011;37377;45.186;9.778;2022-07-29T15:21:37;21.55;;;10.75;;
51292;SDS011;37377;45.186;9.778;2022-07-29T15:24:17;16.85;;;11.23;;
51292;SDS011;37377;45.186;9.778;2022-07-29T15:26:44;12.60;;;9.85;;
51292;SDS011;37377;45.186;9.778;2022-07-29T15:29:11;18.02;;;10.02;;
51292;SDS011;37377;45.186;9.778;2022-07-29T15:31:39;17.48;;;8.23;;
51292;SDS011;37377;45.186;9.778;2022-07-29T15:34:06;12.75;;;8.25;;
51292;SDS011;37377;45.186;9.778;2022-07-29T15:36:33;14.93;;;8.70;;
51292;SDS011;37377;45.186;9.778;2022-07-29T15:39:18;17.23;;;10.10;;
51292;SDS011;37377;45.186;9.778;2022-07-29T15:41:45;11.73;;;9.43;;
51292;SDS011;37377;45.186;9.778;2022-07-29T15:44:12;11.23;;;9.32;;
51292;SDS011;37377;45.186;9.778;2022-07-29T15:46:39;16.45;;;10.07;;
51292;SDS011;37377;45.186;9.778;2022-07-29T15:49:25;9.75;;;8.57;;
51292;SDS011;37377;45.186;9.778;2022-07-29T15:52:18;12.32;;;9.20;;
51292;SDS011;37377;45.186;9.778;2022-07-29T15:54:52;16.10;;;7.80;;
51292;SDS011;37377;45.186;9.778;2022-07-29T15:57:20;11.75;;;8.05;;
51292;SDS011;37377;45.186;9.778;2022-07-29T15:59:47;10.48;;;7.78;;
51292;SDS011;37377;45.186;9.778;2022-07-29T16:02:14;10.40;;;8.35;;
51292;SDS011;37377;45.186;9.778;2022-07-29T16:04:41;8.73;;;7.55;;
51292;SDS011;37377;45.186;9.778;2022-07-29T16:07:08;13.75;;;9.60;;
51292;SDS011;37377;45.186;9.778;2022-07-29T16:09:35;11.15;;;9.15;;